Time;durP1;ratioP1;P1;durP2;ratioP2;P2;SDS_P1;SDS_P2;PMS_P1;PMS_P2;Temp;Humidity;BMP_temperature;BMP_pressure;BME280_temperature;BME280_humidity;BME280_pressure;Samples;Min_cycle;Max_cycle;Signal;HPM_P1;HPM_P2
2023/01/01 00:01:54;;;;;;;223.87;138.67;;;;;;;;;;4375260;32;320485;-90
2023/01/01 00:04:20;;;;;;;228.27;138.20;;;;;;;;;;4369750;32;320249;-90
2023/01/01 00:06:47;;;;;;;207.43;129.37;;;;;;;;;;4375708;32;320189;-89
2023/01/01 00:12:00;;;;;;;228.17;137.43;;;;;;;;;;4375331;32;318151;-88
2023/01/01 00:14:27;;;;;;;225.00;134.83;;;;;;;;;;4369260;32;319593;-88
2023/01/01 00:16:54;;;;;;;228.33;133.47;;;;;;;;;;4380755;32;320223;-89
2023/01/01 00:19:21;;;;;;;217.00;126.43;;;;;;;;;;4367452;32;320679;-90
2023/01/01 00:21:48;;;;;;;189.43;114.80;;;;;;;;;;4377288;32;320359;-89
2023/01/01 00:24:16;;;;;;;211.07;117.80;;;;;;;;;;4364322;32;340376;-88
2023/01/01 00:26:43;;;;;;;196.43;117.70;;;;;;;;;;4376701;32;320691;-90
2023/01/01 00:29:10;;;;;;;197.70;114.50;;;;;;;;;;4377874;32;320004;-90
2023/01/01 00:31:37;;;;;;;184.97;110.03;;;;;;;;;;4370370;32;320060;-89
2023/01/01 00:34:04;;;;;;;173.03;106.27;;;;;;;;;;4375118;32;319855;-89
2023/01/01 00:36:30;;;;;;;180.20;111.57;;;;;;;;;;4365471;32;320485;-88
2023/01/01 00:38:57;;;;;;;196.00;112.33;;;;;;;;;;4374965;32;320352;-89
2023/01/01 00:41:26;;;;;;;183.73;113.20;;;;;;;;;;4364894;32;320819;-88
2023/01/01 00:43:52;;;;;;;211.47;125.13;;;;;;;;;;4374587;32;320610;-89
2023/01/01 00:46:19;;;;;;;229.23;131.03;;;;;;;;;;4365498;32;319918;-88
2023/01/01 00:48:46;;;;;;;266.47;150.80;;;;;;;;;;4373976;32;319514;-88
2023/01/01 00:51:13;;;;;;;299.27;177.70;;;;;;;;;;4373891;32;320428;-89
2023/01/01 00:53:40;;;;;;;290.97;164.83;;;;;;;;;;4360577;32;419079;-88
2023/01/01 00:56:07;;;;;;;291.50;171.87;;;;;;;;;;4373405;32;359824;-88
2023/01/01 00:58:35;;;;;;;320.90;183.37;;;;;;;;;;4363024;32;319453;-88
2023/01/01 01:01:02;;;;;;;314.50;185.77;;;;;;;;;;4374252;32;320521;-88
2023/01/01 01:03:29;;;;;;;296.17;177.57;;;;;;;;;;4362838;32;320605;-89
2023/01/01 01:05:57;;;;;;;304.13;179.63;;;;;;;;;;4373660;32;320539;-88
2023/01/01 01:08:24;;;;;;;272.57;164.43;;;;;;;;;;4364708;32;320280;-88
2023/01/01 01:10:51;;;;;;;259.73;154.83;;;;;;;;;;4374978;32;320409;-88
2023/01/01 01:13:18;;;;;;;309.40;182.27;;;;;;;;;;4364514;32;319599;-89
2023/01/01 01:15:46;;;;;;;372.13;217.73;;;;;;;;;;4376716;32;320258;-88
2023/01/01 01:18:14;;;;;;;367.50;214.93;;;;;;;;;;4379611;32;320824;-88
2023/01/01 01:20:40;;;;;;;365.07;208.83;;;;;;;;;;4367127;32;419157;-87
2023/01/01 01:23:07;;;;;;;309.63;175.13;;;;;;;;;;4378509;32;319991;-87
2023/01/01 01:25:34;;;;;;;309.77;182.43;;;;;;;;;;4366408;32;319671;-89
2023/01/01 01:28:01;;;;;;;351.83;205.10;;;;;;;;;;4379174;32;320521;-89
2023/01/01 01:30:30;;;;;;;294.67;175.63;;;;;;;;;;4369488;32;319666;-91
2023/01/01 01:32:58;;;;;;;278.57;160.43;;;;;;;;;;4378130;32;319668;-91
2023/01/01 01:35:25;;;;;;;256.50;153.03;;;;;;;;;;4367878;32;320150;-91
2023/01/01 01:37:52;;;;;;;245.77;140.70;;;;;;;;;;4377408;32;320229;-90
2023/01/01 01:40:19;;;;;;;218.20;125.50;;;;;;;;;;4365205;32;335822;-89
2023/01/01 01:42:47;;;;;;;181.63;111.17;;;;;;;;;;4377979;32;324784;-90
2023/01/01 01:45:16;;;;;;;176.60;100.40;;;;;;;;;;4373909;32;320107;-89
2023/01/01 01:47:48;;;;;;;178.60;100.47;;;;;;;;;;4377691;32;320151;-89
2023/01/01 01:50:23;;;;;;;163.47;95.20;;;;;;;;;;4366654;32;319593;-89
2023/01/01 01:53:02;;;;;;;148.20;87.07;;;;;;;;;;4378220;32;319016;-90
2023/01/01 01:55:30;;;;;;;128.93;79.17;;;;;;;;;;4369292;32;319038;-90
2023/01/01 01:57:58;;;;;;;134.33;75.83;;;;;;;;;;4378414;32;319147;-90
2023/01/01 02:00:25;;;;;;;147.63;81.70;;;;;;;;;;4367065;32;318622;-87
2023/01/01 02:02:55;;;;;;;140.83;78.63;;;;;;;;;;4376988;32;319466;-93
2023/01/01 02:05:24;;;;;;;119.20;69.87;;;;;;;;;;4366685;32;318681;-83
2023/01/01 02:07:52;;;;;;;136.00;79.50;;;;;;;;;;4377880;32;318565;-90
2023/01/01 02:10:19;;;;;;;134.43;80.87;;;;;;;;;;4366853;32;319449;-88
2023/01/01 02:12:46;;;;;;;126.90;72.20;;;;;;;;;;4376858;32;319334;-89
2023/01/01 02:15:13;;;;;;;124.23;69.53;;;;;;;;;;4377502;32;318565;-89
2023/01/01 02:17:51;;;;;;;141.80;74.83;;;;;;;;;;4365235;32;418695;-90
2023/01/01 02:20:33;;;;;;;118.23;69.83;;;;;;;;;;4367731;32;318657;-89
2023/01/01 02:23:30;;;;;;;109.00;64.70;;;;;;;;;;4383079;32;318592;-92
2023/01/01 02:26:18;;;;;;;99.60;58.03;;;;;;;;;;4375873;32;412330;-91
2023/01/01 02:28:52;;;;;;;105.33;57.63;;;;;;;;;;4375210;32;416684;-91
2023/01/01 02:31:24;;;;;;;109.50;61.10;;;;;;;;;;4377506;32;318438;-93
2023/01/01 02:33:55;;;;;;;128.40;67.10;;;;;;;;;;4385771;32;318293;-94
2023/01/01 02:36:24;;;;;;;110.10;64.97;;;;;;;;;;4372472;32;318358;-93
2023/01/01 02:38:54;;;;;;;160.43;80.40;;;;;;;;;;4378352;32;318348;-92
2023/01/01 02:41:25;;;;;;;173.03;87.70;;;;;;;;;;4368042;32;318564;-92
2023/01/01 02:43:54;;;;;;;158.33;82.23;;;;;;;;;;4378871;32;318714;-90
2023/01/01 02:46:21;;;;;;;169.60;85.00;;;;;;;;;;4371647;32;318447;-93
2023/01/01 02:48:50;;;;;;;152.27;81.93;;;;;;;;;;4388325;32;317193;-93
2023/01/01 02:51:27;;;;;;;163.93;85.97;;;;;;;;;;4374743;32;318270;-90
2023/01/01 02:54:01;;;;;;;163.23;90.53;;;;;;;;;;4380973;32;319225;-91
2023/01/01 02:56:36;;;;;;;158.23;88.20;;;;;;;;;;4368257;32;318628;-91
2023/01/01 03:02:08;;;;;;;135.23;78.27;;;;;;;;;;4363282;32;389663;-89
2023/01/01 03:04:48;;;;;;;137.37;76.30;;;;;;;;;;4369071;32;319352;-89
2023/01/01 03:07:23;;;;;;;139.97;75.53;;;;;;;;;;4364717;32;346421;-89
2023/01/01 03:09:57;;;;;;;140.47;76.23;;;;;;;;;;4377397;32;319189;-91
2023/01/01 03:12:38;;;;;;;125.77;73.37;;;;;;;;;;4368444;32;319021;-90
2023/01/01 03:15:14;;;;;;;158.43;88.07;;;;;;;;;;4379514;32;343928;-89
2023/01/01 03:17:47;;;;;;;339.83;190.90;;;;;;;;;;4366228;32;417457;-92
2023/01/01 03:20:21;;;;;;;553.37;347.50;;;;;;;;;;4376855;32;342062;-91
2023/01/01 03:22:51;;;;;;;587.37;374.97;;;;;;;;;;4365642;32;410170;-90
2023/01/01 03:25:22;;;;;;;555.80;357.63;;;;;;;;;;4365762;32;319549;-89
2023/01/01 03:27:51;;;;;;;572.30;364.80;;;;;;;;;;4376252;32;319659;-89
2023/01/01 03:30:21;;;;;;;561.33;355.97;;;;;;;;;;4365117;32;319411;-90
2023/01/01 03:33:02;;;;;;;545.37;340.30;;;;;;;;;;4376211;32;319531;-89
2023/01/01 03:35:35;;;;;;;491.77;283.63;;;;;;;;;;4364064;32;339983;-90
2023/01/01 03:38:05;;;;;;;403.70;232.97;;;;;;;;;;4374864;32;319463;-90
2023/01/01 03:40:36;;;;;;;334.20;185.80;;;;;;;;;;4364025;32;320207;-89
2023/01/01 03:43:08;;;;;;;314.43;174.03;;;;;;;;;;4374947;32;320580;-88
2023/01/01 03:45:41;;;;;;;297.67;168.23;;;;;;;;;;4364418;32;320625;-89
2023/01/01 03:48:10;;;;;;;337.00;180.23;;;;;;;;;;4375816;32;319670;-90
2023/01/01 03:50:48;;;;;;;354.93;187.70;;;;;;;;;;4363621;32;320318;-88
2023/01/01 03:53:25;;;;;;;342.03;186.17;;;;;;;;;;4365756;32;319734;-91
2023/01/01 03:56:00;;;;;;;314.07;169.27;;;;;;;;;;4374500;32;320390;-92
2023/01/01 03:58:34;;;;;;;279.30;147.57;;;;;;;;;;4365674;32;319698;-91
2023/01/01 04:01:08;;;;;;;217.30;119.77;;;;;;;;;;4376330;32;319641;-90
2023/01/01 04:03:38;;;;;;;234.17;126.93;;;;;;;;;;4365960;32;320088;-90
2023/01/01 04:06:06;;;;;;;255.33;130.83;;;;;;;;;;4374716;32;319443;-90
2023/01/01 04:08:34;;;;;;;214.00;115.97;;;;;;;;;;4366377;32;319507;-91
2023/01/01 04:12:00;;;;;;;201.43;107.70;;;;;;;;;;4376063;32;319585;-92
2023/01/01 04:13:53;;;;;;;188.13;104.97;;;;;;;;;;4363359;32;390786;-94
2023/01/01 04:16:22;;;;;;;202.60;109.60;;;;;;;;;;4368693;32;319659;-90
2023/01/01 04:18:48;;;;;;;229.80;121.90;;;;;;;;;;4375311;32;319737;-90
2023/01/01 04:21:15;;;;;;;243.13;130.20;;;;;;;;;;4363321;32;320298;-90
2023/01/01 04:23:42;;;;;;;319.60;156.07;;;;;;;;;;4374261;32;320320;-91
2023/01/01 04:26:13;;;;;;;294.90;156.03;;;;;;;;;;4375846;32;319807;-90
2023/01/01 04:28:41;;;;;;;297.40;150.70;;;;;;;;;;4362698;32;419445;-91
2023/01/01 04:31:08;;;;;;;308.53;162.10;;;;;;;;;;4376055;32;320194;-90
2023/01/01 04:33:36;;;;;;;289.40;150.43;;;;;;;;;;4363684;32;354950;-91
2023/01/01 04:36:06;;;;;;;275.27;146.03;;;;;;;;;;4375935;32;319816;-91
2023/01/01 04:38:34;;;;;;;289.23;154.43;;;;;;;;;;4366826;32;320153;-86
2023/01/01 04:41:02;;;;;;;256.40;139.93;;;;;;;;;;4375117;32;320460;-86
2023/01/01 04:43:29;;;;;;;259.00;142.33;;;;;;;;;;4364167;32;320279;-86
2023/01/01 04:45:57;;;;;;;230.83;128.27;;;;;;;;;;4374931;32;320815;-88
2023/01/01 04:48:25;;;;;;;255.67;130.17;;;;;;;;;;4365153;32;320386;-88
2023/01/01 04:50:57;;;;;;;215.70;120.43;;;;;;;;;;4377380;32;320225;-89
2023/01/01 04:53:24;;;;;;;201.33;109.43;;;;;;;;;;4368185;32;320230;-89
2023/01/01 04:55:51;;;;;;;212.00;103.27;;;;;;;;;;4376306;32;319914;-88
2023/01/01 04:58:18;;;;;;;195.77;100.90;;;;;;;;;;4365618;32;320829;-89
2023/01/01 05:00:48;;;;;;;180.23;96.87;;;;;;;;;;4378208;32;319664;-89
2023/01/01 05:03:15;;;;;;;187.50;100.27;;;;;;;;;;4367937;32;319281;-89
2023/01/01 05:05:42;;;;;;;195.87;100.63;;;;;;;;;;4377533;32;320164;-89
2023/01/01 05:08:10;;;;;;;163.67;88.53;;;;;;;;;;4378965;32;319964;-89
2023/01/01 05:10:37;;;;;;;160.57;85.00;;;;;;;;;;4367132;32;318778;-88
2023/01/01 05:13:07;;;;;;;128.43;72.37;;;;;;;;;;4377693;32;319509;-87
2023/01/01 05:15:36;;;;;;;123.13;70.40;;;;;;;;;;4367524;32;319360;-89
2023/01/01 05:18:03;;;;;;;127.40;72.17;;;;;;;;;;4377627;32;319588;-88
2023/01/01 05:20:29;;;;;;;126.63;67.60;;;;;;;;;;4367841;32;318818;-89
2023/01/01 05:22:56;;;;;;;133.97;70.43;;;;;;;;;;4376867;32;319367;-89
2023/01/01 05:25:24;;;;;;;129.80;72.40;;;;;;;;;;4367507;32;319536;-90
2023/01/01 05:27:51;;;;;;;131.20;69.43;;;;;;;;;;4377657;32;319270;-89
2023/01/01 05:30:18;;;;;;;116.47;60.80;;;;;;;;;;4366782;32;319223;-89
2023/01/01 05:32:45;;;;;;;107.07;58.73;;;;;;;;;;4376606;32;318563;-87
2023/01/01 05:35:12;;;;;;;94.07;54.63;;;;;;;;;;4376951;32;319585;-88
2023/01/01 05:37:38;;;;;;;99.67;54.97;;;;;;;;;;4376266;32;318012;-87
2023/01/01 05:40:06;;;;;;;124.07;65.30;;;;;;;;;;4382674;32;318016;-88
2023/01/01 05:42:34;;;;;;;118.13;61.03;;;;;;;;;;4365868;32;318625;-88
2023/01/01 05:45:01;;;;;;;100.17;58.87;;;;;;;;;;4375977;32;318925;-89
2023/01/01 05:47:28;;;;;;;106.17;59.03;;;;;;;;;;4365893;32;318903;-90
2023/01/01 05:49:55;;;;;;;113.80;62.10;;;;;;;;;;4375291;32;319431;-91
2023/01/01 05:52:22;;;;;;;111.97;61.77;;;;;;;;;;4368073;32;319497;-89
2023/01/01 05:54:49;;;;;;;123.63;66.40;;;;;;;;;;4390482;32;319341;-88
2023/01/01 05:57:16;;;;;;;120.27;68.13;;;;;;;;;;4375997;32;318486;-89
2023/01/01 05:59:44;;;;;;;126.20;65.93;;;;;;;;;;4378812;32;319580;-90
2023/01/01 06:02:11;;;;;;;110.53;60.90;;;;;;;;;;4378438;32;319310;-90
2023/01/01 06:04:37;;;;;;;118.83;62.27;;;;;;;;;;4367437;32;318682;-90
2023/01/01 06:07:04;;;;;;;116.60;67.53;;;;;;;;;;4375943;32;318610;-89
2023/01/01 06:09:31;;;;;;;131.70;71.67;;;;;;;;;;4366821;32;318542;-89
2023/01/01 06:11:58;;;;;;;149.70;72.83;;;;;;;;;;4376763;32;318835;-90
2023/01/01 06:14:25;;;;;;;147.97;79.93;;;;;;;;;;4370060;32;318663;-89
2023/01/01 06:16:53;;;;;;;148.47;79.53;;;;;;;;;;4376117;32;318702;-90
2023/01/01 06:19:20;;;;;;;158.97;87.30;;;;;;;;;;4364933;32;333597;-90
2023/01/01 06:21:47;;;;;;;173.70;91.27;;;;;;;;;;4376825;32;318696;-88
2023/01/01 06:24:14;;;;;;;190.27;96.53;;;;;;;;;;4377385;32;319059;-93
2023/01/01 06:26:44;;;;;;;181.23;85.97;;;;;;;;;;4365262;32;416899;-92
2023/01/01 06:29:11;;;;;;;140.50;76.50;;;;;;;;;;4377634;32;318798;-89
2023/01/01 06:31:38;;;;;;;158.13;73.13;;;;;;;;;;4370415;32;318975;-89
2023/01/01 06:34:06;;;;;;;134.17;70.20;;;;;;;;;;4380806;32;319678;-90
2023/01/01 06:36:33;;;;;;;135.83;70.70;;;;;;;;;;4371474;32;319411;-89
2023/01/01 06:39:02;;;;;;;140.13;78.33;;;;;;;;;;4378754;32;318516;-89
2023/01/01 06:41:29;;;;;;;180.97;89.20;;;;;;;;;;4366004;32;318699;-89
2023/01/01 06:43:57;;;;;;;171.17;88.63;;;;;;;;;;4377713;32;318927;-91
2023/01/01 06:46:26;;;;;;;168.33;91.80;;;;;;;;;;4366324;32;319442;-89
2023/01/01 06:48:55;;;;;;;168.80;93.17;;;;;;;;;;4375985;32;318666;-90
2023/01/01 06:51:25;;;;;;;199.93;106.37;;;;;;;;;;4366343;32;318663;-90
2023/01/01 06:53:52;;;;;;;205.87;104.87;;;;;;;;;;4377429;32;319836;-91
2023/01/01 06:56:20;;;;;;;199.50;105.87;;;;;;;;;;4368186;32;320187;-89
2023/01/01 06:58:47;;;;;;;210.90;105.23;;;;;;;;;;4379984;32;319652;-90
2023/01/01 07:01:15;;;;;;;187.40;99.53;;;;;;;;;;4376835;32;320378;-89
2023/01/01 07:03:43;;;;;;;193.77;99.67;;;;;;;;;;4362609;32;418292;-88
2023/01/01 07:06:10;;;;;;;208.90;100.97;;;;;;;;;;4375340;32;319306;-88
2023/01/01 07:08:38;;;;;;;204.23;98.73;;;;;;;;;;4365240;32;319799;-90
2023/01/01 07:11:05;;;;;;;197.03;100.97;;;;;;;;;;4374081;32;343398;-89
2023/01/01 07:13:32;;;;;;;201.87;99.73;;;;;;;;;;4364588;32;320989;-89
2023/01/01 07:15:59;;;;;;;206.10;105.53;;;;;;;;;;4375755;32;318767;-90
2023/01/01 07:18:26;;;;;;;204.43;105.93;;;;;;;;;;4363964;32;320008;-90
2023/01/01 07:20:55;;;;;;;229.97;113.30;;;;;;;;;;4374385;32;320271;-88
2023/01/01 07:23:22;;;;;;;219.13;105.87;;;;;;;;;;4364367;32;320412;-88
2023/01/01 07:25:52;;;;;;;232.83;113.23;;;;;;;;;;4374067;32;319747;-89
2023/01/01 07:28:19;;;;;;;234.27;110.63;;;;;;;;;;4365245;32;319524;-89
2023/01/01 07:30:46;;;;;;;258.13;116.33;;;;;;;;;;4375091;32;340309;-89
2023/01/01 07:33:18;;;;;;;228.33;110.63;;;;;;;;;;4373914;32;320341;-89
2023/01/01 07:35:45;;;;;;;219.87;111.13;;;;;;;;;;4363049;32;418915;-90
2023/01/01 07:38:13;;;;;;;200.87;104.30;;;;;;;;;;4374840;32;319612;-92
2023/01/01 07:40:40;;;;;;;195.13;101.27;;;;;;;;;;4363592;32;419110;-90
2023/01/01 07:43:09;;;;;;;170.10;99.00;;;;;;;;;;4377305;32;320278;-91
2023/01/01 07:45:36;;;;;;;178.67;99.00;;;;;;;;;;4366118;32;319052;-91
2023/01/01 07:48:03;;;;;;;190.30;101.43;;;;;;;;;;4375964;32;318263;-90
2023/01/01 07:50:32;;;;;;;171.80;90.60;;;;;;;;;;4365478;32;320313;-91
2023/01/01 07:52:59;;;;;;;146.20;84.47;;;;;;;;;;4374388;32;319685;-91
2023/01/01 07:55:26;;;;;;;155.17;88.13;;;;;;;;;;4365149;32;319323;-90
2023/01/01 07:57:53;;;;;;;183.57;95.00;;;;;;;;;;4374434;32;346431;-90
2023/01/01 08:00:22;;;;;;;158.10;84.80;;;;;;;;;;4365518;32;318798;-90
2023/01/01 08:02:49;;;;;;;145.97;85.03;;;;;;;;;;4375666;32;318669;-89
2023/01/01 08:05:16;;;;;;;134.67;78.17;;;;;;;;;;4364178;32;318527;-89
2023/01/01 08:07:46;;;;;;;139.20;79.00;;;;;;;;;;4375278;32;318559;-87
2023/01/01 08:10:14;;;;;;;153.37;80.37;;;;;;;;;;4374568;32;318580;-88
2023/01/01 08:12:41;;;;;;;169.33;86.67;;;;;;;;;;4360666;32;418522;-86
2023/01/01 08:15:09;;;;;;;157.33;84.83;;;;;;;;;;4373249;32;319281;-89
2023/01/01 08:17:39;;;;;;;154.17;83.97;;;;;;;;;;4365274;32;318593;-90
2023/01/01 08:20:07;;;;;;;151.13;83.70;;;;;;;;;;4374058;32;318521;-88
2023/01/01 08:22:34;;;;;;;170.40;90.97;;;;;;;;;;4364873;32;319363;-89
2023/01/01 08:25:01;;;;;;;161.63;91.07;;;;;;;;;;4375030;32;319085;-88
2023/01/01 08:27:27;;;;;;;164.53;88.57;;;;;;;;;;4364072;32;318542;-88
2023/01/01 08:29:54;;;;;;;159.43;93.20;;;;;;;;;;4373893;32;318615;-89
2023/01/01 08:32:21;;;;;;;174.97;90.67;;;;;;;;;;4364950;32;318769;-89
2023/01/01 08:34:49;;;;;;;172.90;94.07;;;;;;;;;;4373617;32;318820;-88
2023/01/01 08:37:18;;;;;;;217.77;111.57;;;;;;;;;;4365193;32;318624;-90
2023/01/01 08:39:48;;;;;;;205.13;106.43;;;;;;;;;;4375971;32;320512;-91
2023/01/01 08:42:15;;;;;;;203.87;107.53;;;;;;;;;;4367799;32;324826;-89
2023/01/01 08:44:42;;;;;;;193.97;107.87;;;;;;;;;;4380768;32;320803;-88
2023/01/01 08:47:17;;;;;;;199.03;108.90;;;;;;;;;;4376931;32;320415;-88
2023/01/01 08:49:44;;;;;;;201.43;110.10;;;;;;;;;;4362874;32;419549;-88
2023/01/01 08:52:12;;;;;;;199.00;103.50;;;;;;;;;;4373883;32;319557;-89
2023/01/01 08:54:39;;;;;;;214.00;112.50;;;;;;;;;;4364444;32;322352;-88
2023/01/01 08:57:06;;;;;;;293.17;158.73;;;;;;;;;;4374994;32;320235;-89
2023/01/01 08:59:33;;;;;;;232.00;121.57;;;;;;;;;;4364264;32;320675;-88
2023/01/01 09:01:59;;;;;;;282.63;148.43;;;;;;;;;;4373417;32;319462;-88
2023/01/01 09:04:27;;;;;;;254.00;138.13;;;;;;;;;;4363299;32;319683;-90
2023/01/01 09:06:53;;;;;;;249.10;136.53;;;;;;;;;;4373226;32;319807;-89
2023/01/01 09:09:22;;;;;;;227.40;123.67;;;;;;;;;;4362967;32;361531;-89
2023/01/01 09:11:51;;;;;;;226.03;127.13;;;;;;;;;;4375990;32;319594;-89
2023/01/01 09:14:19;;;;;;;236.50;130.43;;;;;;;;;;4365978;32;320548;-89
2023/01/01 09:16:46;;;;;;;244.73;136.80;;;;;;;;;;4375265;32;320235;-91
2023/01/01 09:19:13;;;;;;;250.60;138.83;;;;;;;;;;4375398;32;319582;-90
2023/01/01 09:21:40;;;;;;;265.90;146.23;;;;;;;;;;4363352;32;419462;-89
2023/01/01 09:24:08;;;;;;;237.77;138.60;;;;;;;;;;4374923;32;319616;-92
2023/01/01 09:26:36;;;;;;;237.20;140.03;;;;;;;;;;4365301;32;319859;-88
2023/01/01 09:29:03;;;;;;;260.33;145.63;;;;;;;;;;4375232;32;319812;-91
2023/01/01 09:31:30;;;;;;;315.47;188.23;;;;;;;;;;4365146;32;319620;-89
2023/01/01 09:33:57;;;;;;;270.23;156.30;;;;;;;;;;4374270;32;319626;-88
2023/01/01 09:36:28;;;;;;;255.73;149.10;;;;;;;;;;4363139;32;319568;-91
2023/01/01 09:38:56;;;;;;;261.93;145.13;;;;;;;;;;4374761;32;320381;-90
2023/01/01 09:41:32;;;;;;;256.90;145.83;;;;;;;;;;4363548;32;350197;-87
2023/01/01 09:44:06;;;;;;;250.37;142.13;;;;;;;;;;4373060;32;319599;-87
2023/01/01 09:46:35;;;;;;;249.50;147.73;;;;;;;;;;4363260;32;319770;-92
2023/01/01 09:49:05;;;;;;;273.70;159.30;;;;;;;;;;4376654;32;319806;-90
2023/01/01 09:51:35;;;;;;;259.97;150.70;;;;;;;;;;4364935;32;320489;-89
2023/01/01 09:54:11;;;;;;;252.53;147.57;;;;;;;;;;4376841;32;319439;-87
2023/01/01 09:56:40;;;;;;;242.20;144.03;;;;;;;;;;4366345;32;320728;-88
2023/01/01 09:59:10;;;;;;;180.77;102.30;;;;;;;;;;4375178;32;332397;-88
2023/01/01 10:01:47;;;;;;;158.43;90.60;;;;;;;;;;4365827;32;320402;-85
2023/01/01 10:04:32;;;;;;;172.73;99.73;;;;;;;;;;4375726;32;319490;-88
2023/01/01 10:07:08;;;;;;;195.50;113.13;;;;;;;;;;4363633;32;419222;-93
2023/01/01 10:09:45;;;;;;;181.77;106.43;;;;;;;;;;4369277;32;319497;-91
2023/01/01 10:12:20;;;;;;;190.47;110.23;;;;;;;;;;4378586;32;319602;-90
2023/01/01 10:14:52;;;;;;;188.17;106.83;;;;;;;;;;4362867;32;420276;-87
2023/01/01 10:17:31;;;;;;;178.37;107.77;;;;;;;;;;4365464;32;320388;-85
2023/01/01 10:20:02;;;;;;;168.73;100.13;;;;;;;;;;4375673;32;319668;-85
2023/01/01 10:22:34;;;;;;;189.00;106.97;;;;;;;;;;4365688;32;320736;-87
2023/01/01 10:25:04;;;;;;;119.13;77.47;;;;;;;;;;4374406;32;320306;-87
2023/01/01 10:27:36;;;;;;;124.87;77.93;;;;;;;;;;4365685;32;319336;-87
2023/01/01 10:30:14;;;;;;;107.20;65.43;;;;;;;;;;4375514;32;319979;-87
2023/01/01 10:32:43;;;;;;;78.23;49.23;;;;;;;;;;4361706;32;418238;-87
2023/01/01 10:35:14;;;;;;;80.20;51.37;;;;;;;;;;4375493;32;317788;-87
2023/01/01 10:37:42;;;;;;;90.37;55.20;;;;;;;;;;4361021;32;417277;-87
2023/01/01 10:40:16;;;;;;;134.33;78.23;;;;;;;;;;4375997;32;318357;-87
2023/01/01 10:42:47;;;;;;;126.03;74.93;;;;;;;;;;4363729;32;418465;-87
2023/01/01 10:45:17;;;;;;;133.10;78.43;;;;;;;;;;4375544;32;319464;-88
2023/01/01 10:48:12;;;;;;;134.77;80.87;;;;;;;;;;4363876;32;419337;-87
2023/01/01 10:50:45;;;;;;;123.70;79.90;;;;;;;;;;4367132;32;319195;-88
2023/01/01 10:53:25;;;;;;;125.83;81.13;;;;;;;;;;4376748;32;319336;-88
2023/01/01 10:56:02;;;;;;;132.00;81.77;;;;;;;;;;4364534;32;420359;-87
2023/01/01 10:58:39;;;;;;;125.77;78.37;;;;;;;;;;4366677;32;320012;-87
2023/01/01 11:01:09;;;;;;;126.97;78.50;;;;;;;;;;4375488;32;320862;-86
2023/01/01 11:03:36;;;;;;;116.17;74.37;;;;;;;;;;4365912;32;320409;-87
2023/01/01 11:06:06;;;;;;;115.00;74.00;;;;;;;;;;4375418;32;320366;-87
2023/01/01 11:08:37;;;;;;;115.00;71.67;;;;;;;;;;4365274;32;332294;-87
2023/01/01 11:11:04;;;;;;;109.47;65.83;;;;;;;;;;4374287;32;319691;-86
2023/01/01 11:13:32;;;;;;;96.97;60.07;;;;;;;;;;4365463;32;320405;-87
2023/01/01 11:16:00;;;;;;;90.33;54.10;;;;;;;;;;4376087;32;319155;-86
2023/01/01 11:18:34;;;;;;;83.40;55.80;;;;;;;;;;4363386;32;318415;-88
2023/01/01 11:21:02;;;;;;;85.20;54.47;;;;;;;;;;4376243;32;319292;-89
2023/01/01 11:23:32;;;;;;;80.03;53.47;;;;;;;;;;4366035;32;332480;-84
2023/01/01 11:26:02;;;;;;;67.00;40.50;;;;;;;;;;4376132;32;318632;-86
2023/01/01 11:28:30;;;;;;;91.20;55.53;;;;;;;;;;4363801;32;319554;-86
2023/01/01 11:31:06;;;;;;;92.40;55.00;;;;;;;;;;4374423;32;319371;-87
2023/01/01 11:33:39;;;;;;;84.83;54.30;;;;;;;;;;4364524;32;318620;-87
2023/01/01 11:36:07;;;;;;;80.70;53.93;;;;;;;;;;4373983;32;319405;-87
2023/01/01 11:38:34;;;;;;;143.90;82.30;;;;;;;;;;4362713;32;319446;-86
2023/01/01 11:41:05;;;;;;;82.73;52.97;;;;;;;;;;4373559;32;320363;-86
2023/01/01 11:43:39;;;;;;;71.00;45.53;;;;;;;;;;4363074;32;318852;-86
2023/01/01 11:46:09;;;;;;;66.10;45.83;;;;;;;;;;4372501;32;318542;-87
2023/01/01 11:48:42;;;;;;;80.73;51.67;;;;;;;;;;4361748;32;345571;-87
2023/01/01 11:51:28;;;;;;;83.50;51.17;;;;;;;;;;4373688;32;319410;-87
2023/01/01 11:54:09;;;;;;;60.47;36.03;;;;;;;;;;4360520;32;418030;-86
2023/01/01 11:56:36;;;;;;;49.00;32.93;;;;;;;;;;4362712;32;318586;-87
2023/01/01 11:59:11;;;;;;;43.00;26.67;;;;;;;;;;4374511;32;319052;-87
2023/01/01 12:01:44;;;;;;;45.70;26.00;;;;;;;;;;4363992;32;319298;-88
2023/01/01 12:04:18;;;;;;;46.70;26.53;;;;;;;;;;4373744;32;319305;-86
2023/01/01 12:06:50;;;;;;;38.73;25.00;;;;;;;;;;4360699;32;418362;-85
2023/01/01 12:09:24;;;;;;;70.90;38.13;;;;;;;;;;4362182;32;318441;-87
2023/01/01 12:11:55;;;;;;;43.70;25.93;;;;;;;;;;4373683;32;318712;-87
2023/01/01 12:14:29;;;;;;;101.70;43.67;;;;;;;;;;4362768;32;318713;-87
2023/01/01 12:17:01;;;;;;;84.97;41.83;;;;;;;;;;4372413;32;320364;-86
2023/01/01 12:19:34;;;;;;;119.77;55.57;;;;;;;;;;4364172;32;318726;-86
2023/01/01 12:22:01;;;;;;;42.90;24.20;;;;;;;;;;4374170;32;320401;-85
2023/01/01 12:24:33;;;;;;;84.87;39.63;;;;;;;;;;4364428;32;319347;-85
2023/01/01 12:27:17;;;;;;;85.43;37.60;;;;;;;;;;4373184;32;319344;-87
2023/01/01 12:30:03;;;;;;;56.80;29.47;;;;;;;;;;4359208;32;419831;-86
2023/01/01 12:32:44;;;;;;;59.83;34.13;;;;;;;;;;4361807;32;319232;-87
2023/01/01 12:35:21;;;;;;;51.20;31.17;;;;;;;;;;4372351;32;318249;-86
2023/01/01 12:37:59;;;;;;;60.63;35.57;;;;;;;;;;4359999;32;419335;-87
2023/01/01 12:40:34;;;;;;;50.27;29.97;;;;;;;;;;4361110;32;319606;-87
2023/01/01 12:43:03;;;;;;;56.13;32.30;;;;;;;;;;4372056;32;319250;-87
2023/01/01 12:45:59;;;;;;;216.73;92.33;;;;;;;;;;4362236;32;319619;-87
2023/01/01 12:49:00;;;;;;;67.10;39.27;;;;;;;;;;4362523;32;320490;-87
2023/01/01 12:51:37;;;;;;;64.97;39.97;;;;;;;;;;4360450;32;318753;-87
2023/01/01 12:54:26;;;;;;;62.63;41.20;;;;;;;;;;4371505;32;342709;-86
2023/01/01 12:57:00;;;;;;;74.60;47.67;;;;;;;;;;4359621;32;419440;-87
2023/01/01 12:59:32;;;;;;;74.60;48.23;;;;;;;;;;4361891;32;319519;-87
2023/01/01 13:02:01;;;;;;;73.87;50.03;;;;;;;;;;4371136;32;318466;-87
2023/01/01 13:04:29;;;;;;;83.30;51.63;;;;;;;;;;4362174;32;319405;-87
2023/01/01 13:07:04;;;;;;;85.83;52.67;;;;;;;;;;4372085;32;318550;-87
2023/01/01 13:09:39;;;;;;;85.37;58.80;;;;;;;;;;4361439;32;319322;-87
2023/01/01 13:12:09;;;;;;;100.67;70.30;;;;;;;;;;4371283;32;318602;-87
2023/01/01 13:14:38;;;;;;;119.57;74.60;;;;;;;;;;4361466;32;320220;-86
2023/01/01 13:17:18;;;;;;;82.97;53.33;;;;;;;;;;4372013;32;320919;-87
2023/01/01 13:19:45;;;;;;;81.00;51.87;;;;;;;;;;4359952;32;418369;-86
2023/01/01 13:22:40;;;;;;;97.43;61.27;;;;;;;;;;4373497;32;318925;-87
2023/01/01 13:25:20;;;;;;;114.17;78.63;;;;;;;;;;4362913;32;419628;-88
2023/01/01 13:28:05;;;;;;;103.10;64.53;;;;;;;;;;4362849;32;420373;-86
2023/01/01 13:30:49;;;;;;;92.27;59.40;;;;;;;;;;4365786;32;320291;-87
2023/01/01 13:33:28;;;;;;;91.47;57.67;;;;;;;;;;4366075;32;330268;-86
2023/01/01 13:36:32;;;;;;;89.13;58.13;;;;;;;;;;4374692;32;318331;-87
2023/01/01 13:39:01;;;;;;;84.67;54.47;;;;;;;;;;4362554;32;419263;-87
2023/01/01 13:41:39;;;;;;;94.20;55.90;;;;;;;;;;4364372;32;319148;-87
2023/01/01 13:44:21;;;;;;;94.67;66.13;;;;;;;;;;4373837;32;319452;-87
2023/01/01 13:47:20;;;;;;;95.37;65.30;;;;;;;;;;4362268;32;419133;-87
2023/01/01 13:50:04;;;;;;;84.07;59.47;;;;;;;;;;4359909;32;420645;-87
2023/01/01 13:53:05;;;;;;;102.73;60.73;;;;;;;;;;4364818;32;319405;-87
2023/01/01 13:55:56;;;;;;;91.10;61.13;;;;;;;;;;4365026;32;320130;-88
2023/01/01 13:59:01;;;;;;;97.03;61.83;;;;;;;;;;4363705;32;319609;-87
2023/01/01 14:01:57;;;;;;;89.33;56.77;;;;;;;;;;4363669;32;319618;-87
2023/01/01 14:04:32;;;;;;;107.93;68.23;;;;;;;;;;4364484;32;319322;-88
2023/01/01 14:07:03;;;;;;;116.50;68.33;;;;;;;;;;4374428;32;320488;-87
2023/01/01 14:09:30;;;;;;;110.67;65.77;;;;;;;;;;4363219;32;320508;-88
2023/01/01 14:12:09;;;;;;;100.30;61.60;;;;;;;;;;4373529;32;320591;-86
2023/01/01 14:14:35;;;;;;;97.00;61.77;;;;;;;;;;4364597;32;320317;-86
2023/01/01 14:17:06;;;;;;;104.77;64.23;;;;;;;;;;4374357;32;319385;-86